sensor_id;sensor_type;location;lat;lon;timestamp;pressure;altitude;pressure_sealevel;temperature;humidity
40245;BME280;25963;42.694;23.600;2022-09-09T00:02:19;95433.34;;;19.21;77.02
40245;BME280;25963;42.694;23.600;2022-09-09T00:04:55;95428.78;;;19.32;76.18
40245;BME280;25963;42.694;23.600;2022-09-09T00:07:50;95430.94;;;19.25;76.01
40245;BME280;25963;42.694;23.600;2022-09-09T00:14:00;95419.69;;;19.18;75.75
40245;BME280;25963;42.694;23.600;2022-09-09T00:16:00;95424.69;;;18.88;77.40
40245;BME280;25963;42.694;23.600;2022-09-09T00:18:31;95420.69;;;18.96;76.70
40245;BME280;25963;42.694;23.600;2022-09-09T00:21:06;95408.16;;;19.02;76.83
40245;BME280;25963;42.694;23.600;2022-09-09T00:23:37;95412.03;;;18.68;78.49
40245;BME280;25963;42.694;23.600;2022-09-09T00:29:10;95410.00;;;18.96;77.15
40245;BME280;25963;42.694;23.600;2022-09-09T00:31:38;95405.22;;;19.13;76.59
40245;BME280;25963;42.694;23.600;2022-09-09T00:36:37;95401.50;;;19.35;75.99
40245;BME280;25963;42.694;23.600;2022-09-09T00:39:03;95387.06;;;19.26;74.73
40245;BME280;25963;42.694;23.600;2022-09-09T00:44:32;95385.44;;;19.04;76.66
40245;BME280;25963;42.694;23.600;2022-09-09T00:47:17;95379.53;;;19.02;76.23
40245;BME280;25963;42.694;23.600;2022-09-09T00:55:34;95378.22;;;19.10;75.61
40245;BME280;25963;42.694;23.600;2022-09-09T00:58:07;95382.28;;;19.33;74.69
40245;BME280;25963;42.694;23.600;2022-09-09T01:03:49;95391.91;;;19.39;74.41
40245;BME280;25963;42.694;23.600;2022-09-09T01:06:36;95395.63;;;19.38;74.13
40245;BME280;25963;42.694;23.600;2022-09-09T01:12:14;95386.50;;;19.08;75.38
40245;BME280;25963;42.694;23.600;2022-09-09T01:14:49;95391.63;;;19.15;74.78
40245;BME280;25963;42.694;23.600;2022-09-09T01:17:52;95398.19;;;18.77;76.10
40245;BME280;25963;42.694;23.600;2022-09-09T01:20:24;95387.78;;;18.90;75.42
40245;BME280;25963;42.694;23.600;2022-09-09T01:27:56;95393.72;;;19.03;74.28
40245;BME280;25963;42.694;23.600;2022-09-09T01:30:24;95394.91;;;18.59;76.00
40245;BME280;25963;42.694;23.600;2022-09-09T01:32:54;95395.72;;;18.55;76.97
40245;BME280;25963;42.694;23.600;2022-09-09T01:35:49;95392.22;;;18.54;77.03
40245;BME280;25963;42.694;23.600;2022-09-09T01:38:16;95377.50;;;18.46;78.00
40245;BME280;25963;42.694;23.600;2022-09-09T01:40:43;95385.25;;;18.53;76.53
40245;BME280;25963;42.694;23.600;2022-09-09T01:43:09;95385.09;;;18.75;76.34
40245;BME280;25963;42.694;23.600;2022-09-09T01:45:35;95376.31;;;18.85;75.59
40245;BME280;25963;42.694;23.600;2022-09-09T01:48:00;95396.00;;;18.68;76.07
40245;BME280;25963;42.694;23.600;2022-09-09T01:50:27;95388.50;;;18.55;77.04
40245;BME280;25963;42.694;23.600;2022-09-09T01:52:57;95397.31;;;18.61;76.23
40245;BME280;25963;42.694;23.600;2022-09-09T01:55:29;95396.72;;;18.48;76.77
40245;BME280;25963;42.694;23.600;2022-09-09T02:00:33;95395.66;;;17.97;78.65
40245;BME280;25963;42.694;23.600;2022-09-09T02:03:09;95398.69;;;17.73;80.20
40245;BME280;25963;42.694;23.600;2022-09-09T02:11:11;95415.41;;;17.96;79.38
40245;BME280;25963;42.694;23.600;2022-09-09T02:13:39;95408.72;;;17.93;79.65
40245;BME280;25963;42.694;23.600;2022-09-09T02:16:15;95409.06;;;18.02;79.21
40245;BME280;25963;42.694;23.600;2022-09-09T02:21:31;95397.09;;;17.72;80.95
40245;BME280;25963;42.694;23.600;2022-09-09T02:24:02;95403.00;;;17.42;81.88
40245;BME280;25963;42.694;23.600;2022-09-09T02:26:31;95402.47;;;17.45;82.39
40245;BME280;25963;42.694;23.600;2022-09-09T02:29:22;95398.75;;;17.78;80.25
40245;BME280;25963;42.694;23.600;2022-09-09T02:31:49;95397.69;;;17.79;80.52
40245;BME280;25963;42.694;23.600;2022-09-09T02:34:18;95395.94;;;17.63;80.77
40245;BME280;25963;42.694;23.600;2022-09-09T02:36:45;95391.75;;;17.72;80.57
40245;BME280;25963;42.694;23.600;2022-09-09T02:39:13;95399.69;;;17.99;78.96
40245;BME280;25963;42.694;23.600;2022-09-09T02:41:41;95387.75;;;18.07;78.20
40245;BME280;25963;42.694;23.600;2022-09-09T02:44:11;95392.03;;;18.13;77.91
40245;BME280;25963;42.694;23.600;2022-09-09T02:49:15;95390.63;;;18.00;78.64
40245;BME280;25963;42.694;23.600;2022-09-09T02:51:50;95388.97;;;17.94;78.14
40245;BME280;25963;42.694;23.600;2022-09-09T02:54:29;95387.13;;;17.95;78.33
40245;BME280;25963;42.694;23.600;2022-09-09T02:57:22;95388.22;;;17.99;77.77
40245;BME280;25963;42.694;23.600;2022-09-09T02:59:46;95391.69;;;17.99;77.84
40245;BME280;25963;42.694;23.600;2022-09-09T03:02:12;95399.97;;;17.98;77.79
40245;BME280;25963;42.694;23.600;2022-09-09T03:04:38;95396.16;;;17.89;78.02
40245;BME280;25963;42.694;23.600;2022-09-09T03:07:04;95396.78;;;18.06;77.34
40245;BME280;25963;42.694;23.600;2022-09-09T03:09:30;95392.84;;;17.76;79.00
40245;BME280;25963;42.694;23.600;2022-09-09T03:11:56;95388.13;;;17.84;78.60
40245;BME280;25963;42.694;23.600;2022-09-09T03:14:22;95394.00;;;17.86;78.46
40245;BME280;25963;42.694;23.600;2022-09-09T03:16:54;95383.88;;;17.88;78.40
40245;BME280;25963;42.694;23.600;2022-09-09T03:19:20;95390.09;;;17.98;77.82
40245;BME280;25963;42.694;23.600;2022-09-09T03:21:47;95395.19;;;18.05;77.62
40245;BME280;25963;42.694;23.600;2022-09-09T03:24:13;95398.84;;;17.94;77.50
40245;BME280;25963;42.694;23.600;2022-09-09T03:26:40;95404.56;;;18.08;76.88
40245;BME280;25963;42.694;23.600;2022-09-09T03:29:06;95401.44;;;17.78;78.33
40245;BME280;25963;42.694;23.600;2022-09-09T03:31:34;95396.72;;;17.58;78.96
40245;BME280;25963;42.694;23.600;2022-09-09T03:34:01;95401.97;;;17.81;78.28
40245;BME280;25963;42.694;23.600;2022-09-09T03:36:27;95397.50;;;17.86;78.44
40245;BME280;25963;42.694;23.600;2022-09-09T03:38:54;95401.28;;;17.95;78.18
40245;BME280;25963;42.694;23.600;2022-09-09T03:41:21;95403.34;;;17.83;77.89
40245;BME280;25963;42.694;23.600;2022-09-09T03:43:51;95407.34;;;17.86;77.50
40245;BME280;25963;42.694;23.600;2022-09-09T03:46:18;95414.28;;;17.87;77.79
40245;BME280;25963;42.694;23.600;2022-09-09T03:48:43;95413.50;;;18.34;75.36
40245;BME280;25963;42.694;23.600;2022-09-09T03:51:09;95410.06;;;18.48;74.60
40245;BME280;25963;42.694;23.600;2022-09-09T03:53:35;95403.38;;;18.41;74.90
40245;BME280;25963;42.694;23.600;2022-09-09T03:56:04;95413.75;;;18.32;75.61
40245;BME280;25963;42.694;23.600;2022-09-09T03:58:32;95413.22;;;17.88;77.04
40245;BME280;25963;42.694;23.600;2022-09-09T04:01:31;95421.09;;;18.05;76.81
40245;BME280;25963;42.694;23.600;2022-09-09T04:03:49;95416.47;;;18.42;75.02
40245;BME280;25963;42.694;23.600;2022-09-09T04:06:15;95416.22;;;17.64;78.26
40245;BME280;25963;42.694;23.600;2022-09-09T04:08:42;95402.94;;;17.37;80.20
40245;BME280;25963;42.694;23.600;2022-09-09T04:11:08;95403.06;;;17.20;81.57
40245;BME280;25963;42.694;23.600;2022-09-09T04:13:34;95411.22;;;17.41;80.89
40245;BME280;25963;42.694;23.600;2022-09-09T04:16:01;95416.06;;;17.44;80.44
40245;BME280;25963;42.694;23.600;2022-09-09T04:18:28;95418.38;;;17.62;79.70
40245;BME280;25963;42.694;23.600;2022-09-09T04:20:54;95428.41;;;17.82;78.44
40245;BME280;25963;42.694;23.600;2022-09-09T04:23:22;95429.56;;;17.64;79.09
40245;BME280;25963;42.694;23.600;2022-09-09T04:25:51;95422.81;;;17.51;79.94
40245;BME280;25963;42.694;23.600;2022-09-09T04:28:18;95418.25;;;17.52;80.27
40245;BME280;25963;42.694;23.600;2022-09-09T04:30:44;95415.44;;;17.64;81.01
40245;BME280;25963;42.694;23.600;2022-09-09T04:33:10;95423.84;;;17.77;80.68
40245;BME280;25963;42.694;23.600;2022-09-09T04:35:36;95423.28;;;18.13;78.56
40245;BME280;25963;42.694;23.600;2022-09-09T04:38:03;95427.09;;;18.32;78.05
40245;BME280;25963;42.694;23.600;2022-09-09T04:40:29;95412.53;;;18.60;77.36
40245;BME280;25963;42.694;23.600;2022-09-09T04:42:57;95399.06;;;19.08;73.85
40245;BME280;25963;42.694;23.600;2022-09-09T04:45:22;95394.53;;;20.05;69.08
40245;BME280;25963;42.694;23.600;2022-09-09T04:47:48;95404.31;;;21.11;64.88
40245;BME280;25963;42.694;23.600;2022-09-09T04:50:14;95401.56;;;21.95;58.99
40245;BME280;25963;42.694;23.600;2022-09-09T04:52:39;95403.09;;;22.54;56.89
40245;BME280;25963;42.694;23.600;2022-09-09T04:55:06;95394.28;;;23.34;53.71
40245;BME280;25963;42.694;23.600;2022-09-09T04:57:32;95402.38;;;23.48;51.97
40245;BME280;25963;42.694;23.600;2022-09-09T04:59:59;95382.50;;;23.82;50.49
40245;BME280;25963;42.694;23.600;2022-09-09T05:02:25;95389.16;;;24.17;49.70
40245;BME280;25963;42.694;23.600;2022-09-09T05:04:51;95383.56;;;24.96;47.80
40245;BME280;25963;42.694;23.600;2022-09-09T05:07:16;95391.03;;;25.13;46.05
40245;BME280;25963;42.694;23.600;2022-09-09T05:09:42;95385.00;;;25.53;46.86
40245;BME280;25963;42.694;23.600;2022-09-09T05:12:08;95387.31;;;25.82;44.98
40245;BME280;25963;42.694;23.600;2022-09-09T05:14:33;95376.44;;;25.37;44.97
40245;BME280;25963;42.694;23.600;2022-09-09T05:17:01;95364.75;;;25.19;45.33
40245;BME280;25963;42.694;23.600;2022-09-09T05:19:26;95357.13;;;25.66;44.49
40245;BME280;25963;42.694;23.600;2022-09-09T05:21:52;95361.31;;;26.34;43.41
40245;BME280;25963;42.694;23.600;2022-09-09T05:24:17;95359.75;;;25.57;45.71
40245;BME280;25963;42.694;23.600;2022-09-09T05:26:43;95372.47;;;26.33;43.64
40245;BME280;25963;42.694;23.600;2022-09-09T05:29:09;95370.00;;;26.54;43.06
40245;BME280;25963;42.694;23.600;2022-09-09T05:31:34;95374.13;;;26.51;42.93
40245;BME280;25963;42.694;23.600;2022-09-09T05:34:00;95370.34;;;26.61;43.24
40245;BME280;25963;42.694;23.600;2022-09-09T05:36:25;95358.00;;;27.12;42.81
40245;BME280;25963;42.694;23.600;2022-09-09T05:38:51;95352.78;;;27.50;41.40
40245;BME280;25963;42.694;23.600;2022-09-09T05:41:19;95359.00;;;27.34;40.84
40245;BME280;25963;42.694;23.600;2022-09-09T05:43:45;95359.72;;;26.82;41.14
40245;BME280;25963;42.694;23.600;2022-09-09T05:46:18;95351.94;;;26.89;42.77
40245;BME280;25963;42.694;23.600;2022-09-09T05:48:45;95356.28;;;27.34;41.25
40245;BME280;25963;42.694;23.600;2022-09-09T05:51:17;95361.06;;;27.54;41.38
40245;BME280;25963;42.694;23.600;2022-09-09T05:53:44;95355.78;;;28.31;39.50
40245;BME280;25963;42.694;23.600;2022-09-09T05:56:16;95361.66;;;28.41;38.86
40245;BME280;25963;42.694;23.600;2022-09-09T05:58:42;95370.66;;;28.25;38.66
40245;BME280;25963;42.694;23.600;2022-09-09T06:01:32;95365.56;;;28.14;38.48
40245;BME280;25963;42.694;23.600;2022-09-09T06:03:58;95364.34;;;28.03;39.30
40245;BME280;25963;42.694;23.600;2022-09-09T06:06:26;95358.16;;;28.41;37.70
40245;BME280;25963;42.694;23.600;2022-09-09T06:08:54;95357.22;;;28.96;39.01
40245;BME280;25963;42.694;23.600;2022-09-09T06:11:24;95369.22;;;28.65;38.22
40245;BME280;25963;42.694;23.600;2022-09-09T06:13:50;95367.19;;;28.54;37.84
40245;BME280;25963;42.694;23.600;2022-09-09T06:16:20;95363.28;;;28.34;38.18
40245;BME280;25963;42.694;23.600;2022-09-09T06:18:48;95368.50;;;28.48;37.88
40245;BME280;25963;42.694;23.600;2022-09-09T06:21:19;95360.59;;;28.25;36.55
40245;BME280;25963;42.694;23.600;2022-09-09T06:23:45;95374.22;;;28.08;36.39
40245;BME280;25963;42.694;23.600;2022-09-09T06:26:20;95369.81;;;28.33;37.69
40245;BME280;25963;42.694;23.600;2022-09-09T06:28:48;95380.34;;;28.34;36.79
40245;BME280;25963;42.694;23.600;2022-09-09T06:31:16;95376.25;;;28.19;36.51
40245;BME280;25963;42.694;23.600;2022-09-09T06:33:53;95375.06;;;28.38;37.17
40245;BME280;25963;42.694;23.600;2022-09-09T06:36:38;95385.75;;;27.79;38.43
40245;BME280;25963;42.694;23.600;2022-09-09T06:39:05;95381.94;;;27.88;37.67
40245;BME280;25963;42.694;23.600;2022-09-09T06:41:31;95384.31;;;27.64;38.23
40245;BME280;25963;42.694;23.600;2022-09-09T06:43:58;95375.53;;;27.93;37.71
40245;BME280;25963;42.694;23.600;2022-09-09T06:46:28;95375.53;;;27.75;38.85
40245;BME280;25963;42.694;23.600;2022-09-09T06:48:55;95380.97;;;27.84;37.91
40245;BME280;25963;42.694;23.600;2022-09-09T06:51:23;95379.22;;;27.88;37.77
40245;BME280;25963;42.694;23.600;2022-09-09T06:53:54;95375.47;;;28.10;36.79
40245;BME280;25963;42.694;23.600;2022-09-09T06:56:35;95358.47;;;27.66;39.59
40245;BME280;25963;42.694;23.600;2022-09-09T06:59:03;95367.06;;;26.90;39.42
40245;BME280;25963;42.694;23.600;2022-09-09T07:01:34;95369.78;;;26.99;39.26
40245;BME280;25963;42.694;23.600;2022-09-09T07:04:00;95377.94;;;27.60;38.53
40245;BME280;25963;42.694;23.600;2022-09-09T07:06:28;95390.38;;;27.52;40.48
40245;BME280;25963;42.694;23.600;2022-09-09T07:08:56;95376.81;;;27.78;38.91
40245;BME280;25963;42.694;23.600;2022-09-09T07:11:25;95377.94;;;27.68;37.73
40245;BME280;25963;42.694;23.600;2022-09-09T07:13:54;95381.25;;;27.13;38.41
40245;BME280;25963;42.694;23.600;2022-09-09T07:16:21;95374.91;;;27.79;36.57
40245;BME280;25963;42.694;23.600;2022-09-09T07:18:49;95379.06;;;27.67;37.71
40245;BME280;25963;42.694;23.600;2022-09-09T07:21:16;95377.16;;;27.68;36.92
40245;BME280;25963;42.694;23.600;2022-09-09T07:23:41;95384.81;;;26.25;41.07
40245;BME280;25963;42.694;23.600;2022-09-09T07:26:18;95378.44;;;25.90;41.80
40245;BME280;25963;42.694;23.600;2022-09-09T07:28:47;95384.06;;;25.80;41.09
40245;BME280;25963;42.694;23.600;2022-09-09T07:31:18;95375.88;;;27.22;38.49
40245;BME280;25963;42.694;23.600;2022-09-09T07:33:44;95370.09;;;27.93;38.55
40245;BME280;25963;42.694;23.600;2022-09-09T07:38:46;95365.56;;;28.14;39.71
40245;BME280;25963;42.694;23.600;2022-09-09T07:41:16;95363.00;;;28.18;39.65
40245;BME280;25963;42.694;23.600;2022-09-09T07:43:44;95370.16;;;28.70;37.28
40245;BME280;25963;42.694;23.600;2022-09-09T07:46:12;95370.94;;;28.70;36.64
40245;BME280;25963;42.694;23.600;2022-09-09T07:48:38;95361.09;;;28.27;37.38
40245;BME280;25963;42.694;23.600;2022-09-09T07:51:09;95363.16;;;28.21;37.47
40245;BME280;25963;42.694;23.600;2022-09-09T07:53:37;95355.28;;;28.46;38.54
40245;BME280;25963;42.694;23.600;2022-09-09T07:56:09;95366.31;;;28.71;40.49
40245;BME280;25963;42.694;23.600;2022-09-09T07:58:38;95362.16;;;29.03;37.93
40245;BME280;25963;42.694;23.600;2022-09-09T08:01:15;95359.25;;;29.29;39.99
40245;BME280;25963;42.694;23.600;2022-09-09T08:03:43;95358.53;;;28.90;38.00
40245;BME280;25963;42.694;23.600;2022-09-09T08:06:10;95360.09;;;28.70;37.39
40245;BME280;25963;42.694;23.600;2022-09-09T08:08:36;95362.41;;;29.10;38.84
40245;BME280;25963;42.694;23.600;2022-09-09T08:11:14;95362.53;;;29.55;38.01
40245;BME280;25963;42.694;23.600;2022-09-09T08:13:40;95363.06;;;29.70;35.07
40245;BME280;25963;42.694;23.600;2022-09-09T08:16:27;95360.19;;;29.87;39.51
40245;BME280;25963;42.694;23.600;2022-09-09T08:18:53;95364.78;;;29.53;37.50
40245;BME280;25963;42.694;23.600;2022-09-09T08:21:29;95370.78;;;29.26;36.53
40245;BME280;25963;42.694;23.600;2022-09-09T08:23:59;95363.47;;;29.39;36.56
40245;BME280;25963;42.694;23.600;2022-09-09T08:26:27;95356.03;;;29.69;37.65
40245;BME280;25963;42.694;23.600;2022-09-09T08:28:54;95355.44;;;29.96;35.63
40245;BME280;25963;42.694;23.600;2022-09-09T08:31:38;95362.00;;;30.29;36.95
40245;BME280;25963;42.694;23.600;2022-09-09T08:34:05;95361.69;;;30.55;35.33
40245;BME280;25963;42.694;23.600;2022-09-09T08:36:37;95358.84;;;30.76;36.88
40245;BME280;25963;42.694;23.600;2022-09-09T08:39:06;95354.06;;;30.97;38.02
40245;BME280;25963;42.694;23.600;2022-09-09T08:50:06;95346.06;;;31.16;33.20
40245;BME280;25963;42.694;23.600;2022-09-09T08:52:44;95337.78;;;31.13;33.16
40245;BME280;25963;42.694;23.600;2022-09-09T08:57:42;95345.31;;;31.04;34.16
40245;BME280;25963;42.694;23.600;2022-09-09T09:00:10;95341.06;;;31.59;34.69
40245;BME280;25963;42.694;23.600;2022-09-09T09:06:06;95340.00;;;30.70;33.88
40245;BME280;25963;42.694;23.600;2022-09-09T09:09:36;95329.63;;;31.53;34.03
40245;BME280;25963;42.694;23.600;2022-09-09T09:12:06;95329.06;;;31.76;33.11
40245;BME280;25963;42.694;23.600;2022-09-09T09:14:35;95334.28;;;31.81;35.71
40245;BME280;25963;42.694;23.600;2022-09-09T09:17:06;95324.22;;;31.29;33.96
40245;BME280;25963;42.694;23.600;2022-09-09T09:19:34;95326.78;;;31.50;34.54
40245;BME280;25963;42.694;23.600;2022-09-09T09:24:54;95332.22;;;31.62;35.91
40245;BME280;25963;42.694;23.600;2022-09-09T09:29:46;95330.66;;;30.96;33.64
40245;BME280;25963;42.694;23.600;2022-09-09T09:32:17;95330.34;;;31.38;37.71
40245;BME280;25963;42.694;23.600;2022-09-09T09:34:49;95321.09;;;31.55;34.96
40245;BME280;25963;42.694;23.600;2022-09-09T09:37:28;95320.78;;;31.72;34.42
40245;BME280;25963;42.694;23.600;2022-09-09T09:39:54;95324.31;;;31.73;34.54
40245;BME280;25963;42.694;23.600;2022-09-09T09:42:20;95319.88;;;32.12;34.68
40245;BME280;25963;42.694;23.600;2022-09-09T09:44:45;95318.53;;;31.06;34.11
40245;BME280;25963;42.694;23.600;2022-09-09T09:47:14;95318.25;;;31.79;35.35
40245;BME280;25963;42.694;23.600;2022-09-09T09:49:58;95324.66;;;32.31;35.14
40245;BME280;25963;42.694;23.600;2022-09-09T09:52:31;95320.16;;;32.23;36.13
40245;BME280;25963;42.694;23.600;2022-09-09T09:54:58;95313.31;;;32.29;35.21
40245;BME280;25963;42.694;23.600;2022-09-09T09:57:29;95318.78;;;32.45;31.33
40245;BME280;25963;42.694;23.600;2022-09-09T10:00:16;95313.19;;;32.41;32.61
40245;BME280;25963;42.694;23.600;2022-09-09T10:02:44;95307.75;;;32.25;35.40
40245;BME280;25963;42.694;23.600;2022-09-09T10:07:47;95296.00;;;32.72;34.57
40245;BME280;25963;42.694;23.600;2022-09-09T10:10:34;95297.22;;;32.75;36.10
40245;BME280;25963;42.694;23.600;2022-09-09T10:13:14;95289.06;;;32.59;32.08
40245;BME280;25963;42.694;23.600;2022-09-09T10:15:45;95292.31;;;32.65;34.38
40245;BME280;25963;42.694;23.600;2022-09-09T10:18:46;95298.00;;;32.76;32.19
40245;BME280;25963;42.694;23.600;2022-09-09T10:21:32;95291.69;;;32.40;37.48
40245;BME280;25963;42.694;23.600;2022-09-09T10:40:15;95310.34;;;32.69;34.19
40245;BME280;25963;42.694;23.600;2022-09-09T10:42:45;95306.09;;;32.53;34.67
40245;BME280;25963;42.694;23.600;2022-09-09T10:45:21;95303.34;;;32.05;34.63
40245;BME280;25963;42.694;23.600;2022-09-09T10:48:07;95309.84;;;31.56;35.00
40245;BME280;25963;42.694;23.600;2022-09-09T10:53:10;95302.97;;;31.91;34.73
40245;BME280;25963;42.694;23.600;2022-09-09T10:55:45;95308.09;;;32.08;34.78
40245;BME280;25963;42.694;23.600;2022-09-09T10:58:32;95299.22;;;32.11;35.26
40245;BME280;25963;42.694;23.600;2022-09-09T11:01:13;95306.66;;;31.26;35.49
40245;BME280;25963;42.694;23.600;2022-09-09T11:03:41;95311.75;;;30.63;38.72
40245;BME280;25963;42.694;23.600;2022-09-09T11:06:16;95307.00;;;30.60;39.97
40245;BME280;25963;42.694;23.600;2022-09-09T11:08:43;95306.06;;;30.68;37.69
40245;BME280;25963;42.694;23.600;2022-09-09T11:11:38;95312.66;;;30.91;38.38
40245;BME280;25963;42.694;23.600;2022-09-09T11:17:22;95309.59;;;30.81;38.44
40245;BME280;25963;42.694;23.600;2022-09-09T11:19:49;95311.06;;;30.78;39.10
40245;BME280;25963;42.694;23.600;2022-09-09T11:25:17;95309.72;;;30.60;39.18
40245;BME280;25963;42.694;23.600;2022-09-09T11:30:39;95293.28;;;30.56;40.94
40245;BME280;25963;42.694;23.600;2022-09-09T11:38:53;95289.53;;;30.24;39.93
40245;BME280;25963;42.694;23.600;2022-09-09T11:41:22;95285.53;;;30.09;40.62
40245;BME280;25963;42.694;23.600;2022-09-09T11:43:48;95285.03;;;30.28;42.33
40245;BME280;25963;42.694;23.600;2022-09-09T11:46:22;95276.41;;;30.26;41.32
40245;BME280;25963;42.694;23.600;2022-09-09T11:48:59;95272.31;;;30.32;40.20
40245;BME280;25963;42.694;23.600;2022-09-09T11:51:30;95275.03;;;30.32;37.94
40245;BME280;25963;42.694;23.600;2022-09-09T11:54:02;95260.28;;;30.33;43.33
40245;BME280;25963;42.694;23.600;2022-09-09T11:56:31;95252.91;;;29.51;39.94
40245;BME280;25963;42.694;23.600;2022-09-09T11:59:19;95247.78;;;29.71;41.63
40245;BME280;25963;42.694;23.600;2022-09-09T12:01:44;95245.88;;;29.84;40.84
40245;BME280;25963;42.694;23.600;2022-09-09T12:04:27;95242.22;;;29.67;40.31
40245;BME280;25963;42.694;23.600;2022-09-09T12:17:26;95217.44;;;30.30;40.01
40245;BME280;25963;42.694;23.600;2022-09-09T12:20:10;95224.09;;;30.45;40.55
40245;BME280;25963;42.694;23.600;2022-09-09T12:28:42;95231.38;;;30.41;39.66
40245;BME280;25963;42.694;23.600;2022-09-09T12:33:45;95217.88;;;30.44;40.20
40245;BME280;25963;42.694;23.600;2022-09-09T12:36:27;95215.91;;;30.57;37.82
40245;BME280;25963;42.694;23.600;2022-09-09T12:38:56;95201.06;;;30.67;40.00
40245;BME280;25963;42.694;23.600;2022-09-09T12:41:26;95198.63;;;30.78;38.85
40245;BME280;25963;42.694;23.600;2022-09-09T12:44:12;95210.47;;;30.69;39.40
40245;BME280;25963;42.694;23.600;2022-09-09T12:46:42;95202.81;;;30.35;36.68
40245;BME280;25963;42.694;23.600;2022-09-09T12:49:29;95196.59;;;30.22;36.97
40245;BME280;25963;42.694;23.600;2022-09-09T12:52:08;95196.75;;;30.54;37.91
40245;BME280;25963;42.694;23.600;2022-09-09T12:54:37;95190.03;;;30.76;38.54
40245;BME280;25963;42.694;23.600;2022-09-09T12:57:04;95187.78;;;30.65;37.53
40245;BME280;25963;42.694;23.600;2022-09-09T12:59:39;95186.06;;;30.20;37.06
40245;BME280;25963;42.694;23.600;2022-09-09T13:02:20;95196.34;;;30.02;37.68
40245;BME280;25963;42.694;23.600;2022-09-09T13:04:46;95188.31;;;29.82;37.79
40245;BME280;25963;42.694;23.600;2022-09-09T13:07:12;95186.06;;;29.96;39.97
40245;BME280;25963;42.694;23.600;2022-09-09T13:09:39;95176.66;;;29.93;38.71
40245;BME280;25963;42.694;23.600;2022-09-09T13:12:06;95169.50;;;30.01;37.73
40245;BME280;25963;42.694;23.600;2022-09-09T13:14:37;95180.03;;;29.90;38.70
40245;BME280;25963;42.694;23.600;2022-09-09T13:17:04;95182.28;;;29.64;38.61
40245;BME280;25963;42.694;23.600;2022-09-09T13:19:35;95180.41;;;29.89;42.86
40245;BME280;25963;42.694;23.600;2022-09-09T13:22:39;95175.63;;;30.10;41.02
40245;BME280;25963;42.694;23.600;2022-09-09T13:25:19;95177.06;;;30.20;40.75
40245;BME280;25963;42.694;23.600;2022-09-09T13:27:59;95177.78;;;30.29;41.63
40245;BME280;25963;42.694;23.600;2022-09-09T13:30:36;95164.59;;;30.43;43.79
40245;BME280;25963;42.694;23.600;2022-09-09T13:35:30;95172.75;;;30.43;40.49
40245;BME280;25963;42.694;23.600;2022-09-09T13:37:57;95173.00;;;30.14;41.20
40245;BME280;25963;42.694;23.600;2022-09-09T13:40:23;95178.78;;;29.75;40.22
40245;BME280;25963;42.694;23.600;2022-09-09T13:42:55;95179.13;;;29.98;43.77
40245;BME280;25963;42.694;23.600;2022-09-09T13:45:24;95174.81;;;29.73;41.17
40245;BME280;25963;42.694;23.600;2022-09-09T13:47:52;95171.44;;;29.76;42.35
40245;BME280;25963;42.694;23.600;2022-09-09T13:50:26;95165.56;;;29.62;40.67
40245;BME280;25963;42.694;23.600;2022-09-09T13:52:57;95163.75;;;29.78;40.15
40245;BME280;25963;42.694;23.600;2022-09-09T13:55:29;95149.53;;;30.09;42.14
40245;BME280;25963;42.694;23.600;2022-09-09T13:57:59;95162.59;;;30.16;41.63
40245;BME280;25963;42.694;23.600;2022-09-09T14:00:32;95156.47;;;30.19;43.77
40245;BME280;25963;42.694;23.600;2022-09-09T14:02:58;95161.47;;;29.68;41.59
40245;BME280;25963;42.694;23.600;2022-09-09T14:05:27;95152.66;;;29.71;43.66
40245;BME280;25963;42.694;23.600;2022-09-09T14:07:53;95159.19;;;29.82;41.89
40245;BME280;25963;42.694;23.600;2022-09-09T14:10:19;95153.31;;;29.68;41.43
40245;BME280;25963;42.694;23.600;2022-09-09T14:12:46;95146.53;;;29.74;43.67
40245;BME280;25963;42.694;23.600;2022-09-09T14:15:12;95138.69;;;29.72;41.44
40245;BME280;25963;42.694;23.600;2022-09-09T14:17:38;95138.13;;;29.67;40.13
40245;BME280;25963;42.694;23.600;2022-09-09T14:20:05;95137.13;;;29.84;40.18
40245;BME280;25963;42.694;23.600;2022-09-09T14:22:33;95136.09;;;30.00;43.67
40245;BME280;25963;42.694;23.600;2022-09-09T14:24:58;95140.16;;;29.94;40.82
40245;BME280;25963;42.694;23.600;2022-09-09T14:27:24;95137.69;;;29.65;41.35
40245;BME280;25963;42.694;23.600;2022-09-09T14:29:51;95135.66;;;29.74;40.20
40245;BME280;25963;42.694;23.600;2022-09-09T14:32:16;95130.44;;;29.81;41.43
40245;BME280;25963;42.694;23.600;2022-09-09T14:34:41;95137.69;;;29.65;41.38
40245;BME280;25963;42.694;23.600;2022-09-09T14:37:07;95113.91;;;29.74;40.95
40245;BME280;25963;42.694;23.600;2022-09-09T14:39:32;95119.22;;;29.70;39.60
40245;BME280;25963;42.694;23.600;2022-09-09T14:41:58;95118.63;;;30.01;39.74
40245;BME280;25963;42.694;23.600;2022-09-09T14:44:23;95113.41;;;30.09;41.55
40245;BME280;25963;42.694;23.600;2022-09-09T14:46:49;95117.06;;;30.00;40.92
40245;BME280;25963;42.694;23.600;2022-09-09T14:49:15;95117.94;;;30.05;42.22
40245;BME280;25963;42.694;23.600;2022-09-09T14:51:41;95119.84;;;30.16;42.78
40245;BME280;25963;42.694;23.600;2022-09-09T14:54:06;95120.31;;;30.31;41.99
40245;BME280;25963;42.694;23.600;2022-09-09T14:56:32;95111.59;;;30.25;43.16
40245;BME280;25963;42.694;23.600;2022-09-09T14:59:01;95113.22;;;29.89;42.15
40245;BME280;25963;42.694;23.600;2022-09-09T15:01:28;95123.06;;;29.82;40.46
40245;BME280;25963;42.694;23.600;2022-09-09T15:03:58;95117.31;;;29.83;40.61
40245;BME280;25963;42.694;23.600;2022-09-09T15:06:26;95120.13;;;29.87;44.62
40245;BME280;25963;42.694;23.600;2022-09-09T15:08:53;95116.81;;;30.06;43.16
40245;BME280;25963;42.694;23.600;2022-09-09T15:11:19;95113.63;;;30.16;43.15